sensor_id;sensor_type;location;lat;lon;timestamp;pressure;altitude;pressure_sealevel;temperature;humidity
64298;BME280;50639;53.270;7.956;2024-01-16T00:01:17;100354.28;;;0.56;94.42
64298;BME280;50639;53.270;7.956;2024-01-16T00:03:43;100351.69;;;0.57;94.53
64298;BME280;50639;53.270;7.956;2024-01-16T00:06:10;100351.00;;;0.52;94.35
64298;BME280;50639;53.270;7.956;2024-01-16T00:08:35;100339.97;;;0.52;94.07
64298;BME280;50639;53.270;7.956;2024-01-16T00:11:04;100344.19;;;0.53;93.97
64298;BME280;50639;53.270;7.956;2024-01-16T00:13:29;100338.66;;;0.37;93.91
64298;BME280;50639;53.270;7.956;2024-01-16T00:15:55;100333.91;;;0.25;93.65
64298;BME280;50639;53.270;7.956;2024-01-16T00:18:22;100345.34;;;0.09;93.83
64298;BME280;50639;53.270;7.956;2024-01-16T00:20:47;100356.44;;;0.06;93.97
64298;BME280;50639;53.270;7.956;2024-01-16T00:23:13;100353.25;;;-0.02;94.58
64298;BME280;50639;53.270;7.956;2024-01-16T00:25:38;100368.31;;;0.06;94.85
64298;BME280;50639;53.270;7.956;2024-01-16T00:28:04;100370.84;;;0.07;94.50
64298;BME280;50639;53.270;7.956;2024-01-16T00:30:29;100369.03;;;0.11;94.13
64298;BME280;50639;53.270;7.956;2024-01-16T00:32:55;100372.59;;;0.05;94.37
64298;BME280;50639;53.270;7.956;2024-01-16T00:35:20;100371.25;;;-0.10;93.98
64298;BME280;50639;53.270;7.956;2024-01-16T00:37:46;100373.94;;;-0.17;93.89
64298;BME280;50639;53.270;7.956;2024-01-16T00:40:11;100379.31;;;-0.28;94.49
64298;BME280;50639;53.270;7.956;2024-01-16T00:42:37;100375.41;;;-0.43;93.42
64298;BME280;50639;53.270;7.956;2024-01-16T00:45:02;100380.59;;;-0.47;94.08
64298;BME280;50639;53.270;7.956;2024-01-16T00:47:28;100385.88;;;-0.55;93.79
64298;BME280;50639;53.270;7.956;2024-01-16T00:49:53;100398.69;;;-0.61;93.66
64298;BME280;50639;53.270;7.956;2024-01-16T00:52:18;100391.06;;;-0.61;94.68
64298;BME280;50639;53.270;7.956;2024-01-16T00:54:44;100390.13;;;-0.55;95.01
64298;BME280;50639;53.270;7.956;2024-01-16T00:57:10;100389.94;;;-0.48;94.49
64298;BME280;50639;53.270;7.956;2024-01-16T00:59:36;100391.47;;;-0.41;94.83
64298;BME280;50639;53.270;7.956;2024-01-16T01:02:02;100384.59;;;-0.35;94.26
64298;BME280;50639;53.270;7.956;2024-01-16T01:04:29;100393.94;;;-0.38;94.30
64298;BME280;50639;53.270;7.956;2024-01-16T01:06:54;100388.97;;;-0.44;94.36
64298;BME280;50639;53.270;7.956;2024-01-16T01:09:20;100379.81;;;-0.51;94.79
64298;BME280;50639;53.270;7.956;2024-01-16T01:11:46;100386.69;;;-0.54;94.15
64298;BME280;50639;53.270;7.956;2024-01-16T01:14:12;100388.59;;;-0.62;94.08
64298;BME280;50639;53.270;7.956;2024-01-16T01:16:37;100392.84;;;-0.64;94.91
64298;BME280;50639;53.270;7.956;2024-01-16T01:19:02;100395.41;;;-0.64;94.42
64298;BME280;50639;53.270;7.956;2024-01-16T01:21:29;100396.22;;;-0.62;93.89
64298;BME280;50639;53.270;7.956;2024-01-16T01:23:55;100401.38;;;-0.67;93.86
64298;BME280;50639;53.270;7.956;2024-01-16T01:26:20;100407.31;;;-0.68;94.20
64298;BME280;50639;53.270;7.956;2024-01-16T01:28:46;100415.88;;;-0.70;93.93
64298;BME280;50639;53.270;7.956;2024-01-16T01:31:11;100425.03;;;-0.63;93.51
64298;BME280;50639;53.270;7.956;2024-01-16T01:33:37;100426.75;;;-0.64;93.21
64298;BME280;50639;53.270;7.956;2024-01-16T01:36:03;100420.88;;;-0.67;93.79
64298;BME280;50639;53.270;7.956;2024-01-16T01:38:28;100431.94;;;-0.70;93.81
64298;BME280;50639;53.270;7.956;2024-01-16T01:40:54;100431.06;;;-0.69;93.78
64298;BME280;50639;53.270;7.956;2024-01-16T01:43:20;100435.31;;;-0.69;93.28
64298;BME280;50639;53.270;7.956;2024-01-16T01:46:11;100431.84;;;-0.65;93.49
64298;BME280;50639;53.270;7.956;2024-01-16T01:48:43;100434.16;;;-0.53;93.32
64298;BME280;50639;53.270;7.956;2024-01-16T01:51:10;100426.59;;;-0.56;93.44
64298;BME280;50639;53.270;7.956;2024-01-16T01:53:38;100423.38;;;-0.64;92.91
64298;BME280;50639;53.270;7.956;2024-01-16T01:56:07;100432.94;;;-0.77;93.65
64298;BME280;50639;53.270;7.956;2024-01-16T01:58:34;100436.59;;;-0.89;94.09
64298;BME280;50639;53.270;7.956;2024-01-16T02:01:00;100440.88;;;-0.92;94.81
64298;BME280;50639;53.270;7.956;2024-01-16T02:03:27;100430.88;;;-1.01;94.89
64298;BME280;50639;53.270;7.956;2024-01-16T02:05:53;100439.47;;;-1.07;95.43
64298;BME280;50639;53.270;7.956;2024-01-16T02:08:18;100438.72;;;-1.12;95.77
64298;BME280;50639;53.270;7.956;2024-01-16T02:10:47;100443.91;;;-1.17;95.19
64298;BME280;50639;53.270;7.956;2024-01-16T02:13:14;100443.91;;;-1.18;95.36
64298;BME280;50639;53.270;7.956;2024-01-16T02:15:40;100454.16;;;-1.23;95.64
64298;BME280;50639;53.270;7.956;2024-01-16T02:18:07;100453.28;;;-1.22;96.27
64298;BME280;50639;53.270;7.956;2024-01-16T02:20:32;100463.50;;;-1.23;96.15
64298;BME280;50639;53.270;7.956;2024-01-16T02:23:00;100464.28;;;-1.21;96.31
64298;BME280;50639;53.270;7.956;2024-01-16T02:25:29;100472.84;;;-1.25;96.53
64298;BME280;50639;53.270;7.956;2024-01-16T02:27:54;100470.31;;;-1.27;96.01
64298;BME280;50639;53.270;7.956;2024-01-16T02:30:20;100472.03;;;-1.27;96.26
64298;BME280;50639;53.270;7.956;2024-01-16T02:32:45;100472.91;;;-1.30;96.47
64298;BME280;50639;53.270;7.956;2024-01-16T02:35:11;100478.00;;;-1.31;96.82
64298;BME280;50639;53.270;7.956;2024-01-16T02:37:36;100469.59;;;-1.33;96.62
64298;BME280;50639;53.270;7.956;2024-01-16T02:40:02;100473.81;;;-1.32;96.17
64298;BME280;50639;53.270;7.956;2024-01-16T02:42:35;100477.25;;;-1.35;96.59
64298;BME280;50639;53.270;7.956;2024-01-16T02:45:02;100474.72;;;-1.36;96.68
64298;BME280;50639;53.270;7.956;2024-01-16T02:47:29;100471.38;;;-1.40;96.20
64298;BME280;50639;53.270;7.956;2024-01-16T02:49:54;100469.69;;;-1.39;96.74
64298;BME280;50639;53.270;7.956;2024-01-16T02:52:20;100474.72;;;-1.35;96.15
64298;BME280;50639;53.270;7.956;2024-01-16T02:54:45;100473.88;;;-1.35;95.90
64298;BME280;50639;53.270;7.956;2024-01-16T02:57:11;100464.56;;;-1.36;96.83
64298;BME280;50639;53.270;7.956;2024-01-16T02:59:36;100467.84;;;-1.31;96.44
64298;BME280;50639;53.270;7.956;2024-01-16T03:02:02;100465.22;;;-1.25;96.15
64298;BME280;50639;53.270;7.956;2024-01-16T03:04:27;100483.72;;;-1.17;96.77
64298;BME280;50639;53.270;7.956;2024-01-16T03:06:53;100480.13;;;-1.07;96.34
64298;BME280;50639;53.270;7.956;2024-01-16T03:09:18;100478.22;;;-0.96;96.44
64298;BME280;50639;53.270;7.956;2024-01-16T03:11:44;100478.78;;;-0.80;95.93
64298;BME280;50639;53.270;7.956;2024-01-16T03:14:09;100481.16;;;-0.71;95.81
64298;BME280;50639;53.270;7.956;2024-01-16T03:16:35;100474.19;;;-0.63;95.00
64298;BME280;50639;53.270;7.956;2024-01-16T03:19:00;100473.28;;;-0.60;94.88
64298;BME280;50639;53.270;7.956;2024-01-16T03:21:26;100483.41;;;-0.59;94.59
64298;BME280;50639;53.270;7.956;2024-01-16T03:23:51;100488.38;;;-0.53;94.74
64298;BME280;50639;53.270;7.956;2024-01-16T03:26:16;100486.13;;;-0.66;94.12
64298;BME280;50639;53.270;7.956;2024-01-16T03:28:42;100485.38;;;-0.71;94.08
64298;BME280;50639;53.270;7.956;2024-01-16T03:31:08;100481.38;;;-0.83;94.62
64298;BME280;50639;53.270;7.956;2024-01-16T03:33:33;100482.38;;;-0.90;94.40
64298;BME280;50639;53.270;7.956;2024-01-16T03:36:07;100479.91;;;-0.96;94.71
64298;BME280;50639;53.270;7.956;2024-01-16T03:38:33;100474.97;;;-1.02;94.69
64298;BME280;50639;53.270;7.956;2024-01-16T03:40:59;100475.91;;;-1.06;95.04
64298;BME280;50639;53.270;7.956;2024-01-16T03:43:24;100482.69;;;-1.08;94.69
64298;BME280;50639;53.270;7.956;2024-01-16T03:45:50;100471.75;;;-1.14;95.03
64298;BME280;50639;53.270;7.956;2024-01-16T03:48:15;100473.53;;;-1.17;94.92
64298;BME280;50639;53.270;7.956;2024-01-16T03:50:40;100464.25;;;-1.18;94.49
64298;BME280;50639;53.270;7.956;2024-01-16T03:53:09;100460.03;;;-1.19;94.62
64298;BME280;50639;53.270;7.956;2024-01-16T03:55:34;100458.31;;;-1.19;95.31
64298;BME280;50639;53.270;7.956;2024-01-16T03:58:00;100453.25;;;-1.19;95.04
64298;BME280;50639;53.270;7.956;2024-01-16T04:00:25;100447.34;;;-1.21;94.32
64298;BME280;50639;53.270;7.956;2024-01-16T04:02:51;100443.13;;;-1.22;94.52
64298;BME280;50639;53.270;7.956;2024-01-16T04:05:16;100445.66;;;-1.22;95.02
64298;BME280;50639;53.270;7.956;2024-01-16T04:07:42;100449.97;;;-1.24;94.43
64298;BME280;50639;53.270;7.956;2024-01-16T04:10:07;100451.59;;;-1.23;95.21
64298;BME280;50639;53.270;7.956;2024-01-16T04:12:33;100458.38;;;-1.22;94.58
64298;BME280;50639;53.270;7.956;2024-01-16T04:14:58;100451.69;;;-1.26;95.43
64298;BME280;50639;53.270;7.956;2024-01-16T04:17:24;100460.06;;;-1.22;94.57
64298;BME280;50639;53.270;7.956;2024-01-16T04:19:49;100457.53;;;-1.22;95.17
64298;BME280;50639;53.270;7.956;2024-01-16T04:22:14;100454.13;;;-1.21;95.18
64298;BME280;50639;53.270;7.956;2024-01-16T04:24:40;100451.56;;;-1.20;94.85
64298;BME280;50639;53.270;7.956;2024-01-16T04:27:05;100462.50;;;-1.15;94.44
64298;BME280;50639;53.270;7.956;2024-01-16T04:29:30;100461.50;;;-1.07;95.13
64298;BME280;50639;53.270;7.956;2024-01-16T04:31:56;100469.81;;;-0.99;94.92
64298;BME280;50639;53.270;7.956;2024-01-16T04:34:22;100476.41;;;-0.89;94.55
64298;BME280;50639;53.270;7.956;2024-01-16T04:36:47;100484.06;;;-0.91;94.39
64298;BME280;50639;53.270;7.956;2024-01-16T04:39:13;100480.63;;;-0.88;94.28
64298;BME280;50639;53.270;7.956;2024-01-16T04:41:39;100479.63;;;-0.80;93.62
64298;BME280;50639;53.270;7.956;2024-01-16T04:44:04;100465.09;;;-0.74;93.71
64298;BME280;50639;53.270;7.956;2024-01-16T04:46:29;100474.38;;;-0.72;93.35
64298;BME280;50639;53.270;7.956;2024-01-16T04:48:55;100474.28;;;-0.69;94.11
64298;BME280;50639;53.270;7.956;2024-01-16T04:51:20;100470.91;;;-0.69;94.11
64298;BME280;50639;53.270;7.956;2024-01-16T04:53:46;100465.72;;;-0.63;93.79
64298;BME280;50639;53.270;7.956;2024-01-16T04:56:11;100463.88;;;-0.57;93.94
64298;BME280;50639;53.270;7.956;2024-01-16T04:58:37;100460.25;;;-0.45;94.19
64298;BME280;50639;53.270;7.956;2024-01-16T05:01:02;100488.91;;;-0.37;93.77
64298;BME280;50639;53.270;7.956;2024-01-16T05:03:28;100505.06;;;-0.40;92.91
64298;BME280;50639;53.270;7.956;2024-01-16T05:05:53;100491.47;;;-0.37;92.89
64298;BME280;50639;53.270;7.956;2024-01-16T05:08:18;100497.38;;;-0.36;93.15
64298;BME280;50639;53.270;7.956;2024-01-16T05:10:44;100489.09;;;-0.46;93.71
64298;BME280;50639;53.270;7.956;2024-01-16T05:13:10;100486.53;;;-0.45;93.69
64298;BME280;50639;53.270;7.956;2024-01-16T05:15:37;100476.38;;;-0.46;94.17
64298;BME280;50639;53.270;7.956;2024-01-16T05:18:02;100468.84;;;-0.51;93.61
64298;BME280;50639;53.270;7.956;2024-01-16T05:20:28;100468.94;;;-0.55;93.76
64298;BME280;50639;53.270;7.956;2024-01-16T05:22:55;100470.72;;;-0.59;94.04
64298;BME280;50639;53.270;7.956;2024-01-16T05:25:21;100457.97;;;-0.57;94.17
64298;BME280;50639;53.270;7.956;2024-01-16T05:27:47;100463.03;;;-0.56;94.36
64298;BME280;50639;53.270;7.956;2024-01-16T05:30:13;100468.72;;;-0.45;93.77
64298;BME280;50639;53.270;7.956;2024-01-16T05:32:38;100483.88;;;-0.40;93.58
64298;BME280;50639;53.270;7.956;2024-01-16T05:35:07;100486.28;;;-0.34;93.70
64298;BME280;50639;53.270;7.956;2024-01-16T05:37:34;100477.78;;;-0.33;93.52
64298;BME280;50639;53.270;7.956;2024-01-16T05:39:59;100476.91;;;-0.30;93.78
64298;BME280;50639;53.270;7.956;2024-01-16T05:42:24;100476.03;;;-0.29;93.16
64298;BME280;50639;53.270;7.956;2024-01-16T05:44:51;100476.13;;;-0.34;93.84
64298;BME280;50639;53.270;7.956;2024-01-16T05:47:18;100471.13;;;-0.37;93.47
64298;BME280;50639;53.270;7.956;2024-01-16T05:49:43;100466.06;;;-0.40;93.44
64298;BME280;50639;53.270;7.956;2024-01-16T05:52:09;100471.34;;;-0.48;93.10
64298;BME280;50639;53.270;7.956;2024-01-16T05:54:35;100459.66;;;-0.58;93.61
64298;BME280;50639;53.270;7.956;2024-01-16T05:57:00;100459.03;;;-0.69;93.64
64298;BME280;50639;53.270;7.956;2024-01-16T05:59:26;100456.59;;;-0.72;93.33
64298;BME280;50639;53.270;7.956;2024-01-16T06:01:51;100454.97;;;-0.78;93.34
64298;BME280;50639;53.270;7.956;2024-01-16T06:04:17;100447.47;;;-0.84;93.13
64298;BME280;50639;53.270;7.956;2024-01-16T06:06:42;100457.75;;;-0.88;93.48
64298;BME280;50639;53.270;7.956;2024-01-16T06:09:10;100451.03;;;-0.92;93.89
64298;BME280;50639;53.270;7.956;2024-01-16T06:11:39;100448.59;;;-0.97;93.60
64298;BME280;50639;53.270;7.956;2024-01-16T06:14:06;100451.16;;;-0.97;94.16
64298;BME280;50639;53.270;7.956;2024-01-16T06:16:32;100457.00;;;-0.95;94.46
64298;BME280;50639;53.270;7.956;2024-01-16T06:18:58;100452.84;;;-0.97;94.41
64298;BME280;50639;53.270;7.956;2024-01-16T06:21:23;100449.50;;;-0.99;93.83
64298;BME280;50639;53.270;7.956;2024-01-16T06:23:49;100453.75;;;-1.01;93.62
64298;BME280;50639;53.270;7.956;2024-01-16T06:26:15;100451.31;;;-1.06;94.09
64298;BME280;50639;53.270;7.956;2024-01-16T06:28:41;100460.56;;;-1.03;94.26
64298;BME280;50639;53.270;7.956;2024-01-16T06:31:08;100460.66;;;-1.06;94.11
64298;BME280;50639;53.270;7.956;2024-01-16T06:33:34;100465.59;;;-0.99;94.11
64298;BME280;50639;53.270;7.956;2024-01-16T06:36:00;100469.81;;;-0.99;93.67
64298;BME280;50639;53.270;7.956;2024-01-16T06:38:25;100477.34;;;-0.95;94.08
64298;BME280;50639;53.270;7.956;2024-01-16T06:40:50;100475.63;;;-0.93;93.59
64298;BME280;50639;53.270;7.956;2024-01-16T06:43:16;100474.66;;;-0.87;93.39
64298;BME280;50639;53.270;7.956;2024-01-16T06:45:42;100464.44;;;-0.84;93.75
64298;BME280;50639;53.270;7.956;2024-01-16T06:48:08;100469.44;;;-0.80;93.75
64298;BME280;50639;53.270;7.956;2024-01-16T06:50:33;100453.19;;;-0.71;93.97
64298;BME280;50639;53.270;7.956;2024-01-16T06:52:59;100448.81;;;-0.66;93.80
64298;BME280;50639;53.270;7.956;2024-01-16T06:55:24;100453.78;;;-0.60;93.72
64298;BME280;50639;53.270;7.956;2024-01-16T06:57:50;100449.63;;;-0.64;94.15
64298;BME280;50639;53.270;7.956;2024-01-16T07:00:16;100457.34;;;-0.68;94.37
64298;BME280;50639;53.270;7.956;2024-01-16T07:02:41;100458.19;;;-0.69;94.41
64298;BME280;50639;53.270;7.956;2024-01-16T07:05:11;100465.94;;;-0.74;95.18
64298;BME280;50639;53.270;7.956;2024-01-16T07:07:36;100471.09;;;-0.79;95.15
64298;BME280;50639;53.270;7.956;2024-01-16T07:10:02;100462.75;;;-0.85;95.04
64298;BME280;50639;53.270;7.956;2024-01-16T07:12:28;100468.69;;;-0.85;94.92
64298;BME280;50639;53.270;7.956;2024-01-16T07:14:53;100467.00;;;-0.86;94.70
64298;BME280;50639;53.270;7.956;2024-01-16T07:17:19;100467.94;;;-0.88;95.54
64298;BME280;50639;53.270;7.956;2024-01-16T07:19:44;100465.38;;;-0.88;94.89
64298;BME280;50639;53.270;7.956;2024-01-16T07:22:10;100474.59;;;-0.83;95.09
64298;BME280;50639;53.270;7.956;2024-01-16T07:24:35;100475.47;;;-0.85;95.42
64298;BME280;50639;53.270;7.956;2024-01-16T07:27:01;100467.84;;;-0.85;95.38
64298;BME280;50639;53.270;7.956;2024-01-16T07:29:26;100478.88;;;-0.86;95.18
64298;BME280;50639;53.270;7.956;2024-01-16T07:31:52;100488.09;;;-0.81;94.85
64298;BME280;50639;53.270;7.956;2024-01-16T07:34:18;100484.69;;;-0.80;95.43
64298;BME280;50639;53.270;7.956;2024-01-16T07:36:47;100481.22;;;-0.76;94.80
64298;BME280;50639;53.270;7.956;2024-01-16T07:39:13;100487.09;;;-0.72;95.58
64298;BME280;50639;53.270;7.956;2024-01-16T07:41:39;100496.28;;;-0.65;94.84
64298;BME280;50639;53.270;7.956;2024-01-16T07:44:05;100494.41;;;-0.57;95.42
64298;BME280;50639;53.270;7.956;2024-01-16T07:46:31;100497.81;;;-0.58;94.65
64298;BME280;50639;53.270;7.956;2024-01-16T07:48:56;100503.63;;;-0.53;95.08
64298;BME280;50639;53.270;7.956;2024-01-16T07:51:22;100494.16;;;-0.45;95.38
64298;BME280;50639;53.270;7.956;2024-01-16T07:53:47;100497.47;;;-0.41;95.18
64298;BME280;50639;53.270;7.956;2024-01-16T07:56:14;100494.00;;;-0.37;95.15
64298;BME280;50639;53.270;7.956;2024-01-16T07:58:40;100491.34;;;-0.32;95.02
64298;BME280;50639;53.270;7.956;2024-01-16T08:01:05;100493.91;;;-0.32;94.38
64298;BME280;50639;53.270;7.956;2024-01-16T08:03:31;100491.34;;;-0.32;94.28
64298;BME280;50639;53.270;7.956;2024-01-16T08:05:56;100495.69;;;-0.36;94.64
64298;BME280;50639;53.270;7.956;2024-01-16T08:08:22;100484.66;;;-0.36;94.25
64298;BME280;50639;53.270;7.956;2024-01-16T08:10:48;100491.44;;;-0.35;93.79
64298;BME280;50639;53.270;7.956;2024-01-16T08:13:13;100479.53;;;-0.35;94.26
64298;BME280;50639;53.270;7.956;2024-01-16T08:15:39;100483.66;;;-0.29;93.94
64298;BME280;50639;53.270;7.956;2024-01-16T08:18:04;100486.19;;;-0.28;94.23
64298;BME280;50639;53.270;7.956;2024-01-16T08:20:30;100497.91;;;-0.22;94.00
64298;BME280;50639;53.270;7.956;2024-01-16T08:22:55;100499.66;;;-0.24;93.76
64298;BME280;50639;53.270;7.956;2024-01-16T08:25:21;100497.03;;;-0.20;93.55
64298;BME280;50639;53.270;7.956;2024-01-16T08:27:46;100504.63;;;-0.18;93.84
64298;BME280;50639;53.270;7.956;2024-01-16T08:30:12;100505.38;;;-0.13;93.49
64298;BME280;50639;53.270;7.956;2024-01-16T08:32:37;100512.13;;;-0.12;93.73
64298;BME280;50639;53.270;7.956;2024-01-16T08:35:03;100506.16;;;-0.11;93.38
64298;BME280;50639;53.270;7.956;2024-01-16T08:37:32;100510.31;;;-0.07;93.79
64298;BME280;50639;53.270;7.956;2024-01-16T08:39:57;100518.75;;;-0.05;93.13
64298;BME280;50639;53.270;7.956;2024-01-16T08:42:23;100514.66;;;-0.11;93.84
64298;BME280;50639;53.270;7.956;2024-01-16T08:44:48;100523.84;;;-0.05;93.64
64298;BME280;50639;53.270;7.956;2024-01-16T08:47:14;100523.00;;;-0.06;93.45
64298;BME280;50639;53.270;7.956;2024-01-16T08:49:40;100527.22;;;-0.05;93.15
64298;BME280;50639;53.270;7.956;2024-01-16T08:52:05;100528.94;;;-0.05;93.58
64298;BME280;50639;53.270;7.956;2024-01-16T08:54:31;100538.22;;;-0.03;93.76
64298;BME280;50639;53.270;7.956;2024-01-16T08:56:57;100535.38;;;0.11;93.47
64298;BME280;50639;53.270;7.956;2024-01-16T08:59:24;100545.66;;;0.07;93.36
64298;BME280;50639;53.270;7.956;2024-01-16T09:01:50;100539.81;;;0.02;93.27
64298;BME280;50639;53.270;7.956;2024-01-16T09:04:17;100549.03;;;0.09;92.90
64298;BME280;50639;53.270;7.956;2024-01-16T09:06:42;100554.09;;;0.09;93.41
64298;BME280;50639;53.270;7.956;2024-01-16T09:09:07;100554.00;;;0.13;93.29
64298;BME280;50639;53.270;7.956;2024-01-16T09:11:34;100545.25;;;0.25;92.69
64298;BME280;50639;53.270;7.956;2024-01-16T09:13:59;100544.28;;;0.30;92.62
64298;BME280;50639;53.270;7.956;2024-01-16T09:16:25;100544.19;;;0.35;92.39
64298;BME280;50639;53.270;7.956;2024-01-16T09:18:50;100536.28;;;0.44;92.11
64298;BME280;50639;53.270;7.956;2024-01-16T09:21:15;100547.31;;;0.45;92.07
64298;BME280;50639;53.270;7.956;2024-01-16T09:23:41;100559.97;;;0.49;91.80
64298;BME280;50639;53.270;7.956;2024-01-16T09:26:07;100548.78;;;0.55;91.80
64298;BME280;50639;53.270;7.956;2024-01-16T09:28:32;100554.66;;;0.58;91.42
64298;BME280;50639;53.270;7.956;2024-01-16T09:30:57;100556.84;;;0.72;91.39
64298;BME280;50639;53.270;7.956;2024-01-16T09:33:23;100554.25;;;0.75;90.52
64298;BME280;50639;53.270;7.956;2024-01-16T09:35:50;100552.41;;;0.80;90.81
64298;BME280;50639;53.270;7.956;2024-01-16T09:38:16;100556.56;;;0.84;90.53
64298;BME280;50639;53.270;7.956;2024-01-16T09:40:41;100565.81;;;0.88;90.68
64298;BME280;50639;53.270;7.956;2024-01-16T09:43:07;100548.75;;;0.90;90.60
64298;BME280;50639;53.270;7.956;2024-01-16T09:45:37;100546.16;;;0.93;91.18
64298;BME280;50639;53.270;7.956;2024-01-16T09:48:04;100552.09;;;0.94;91.93
64298;BME280;50639;53.270;7.956;2024-01-16T09:50:30;100538.72;;;0.84;92.23
64298;BME280;50639;53.270;7.956;2024-01-16T09:52:55;100546.53;;;0.78;93.28
64298;BME280;50639;53.270;7.956;2024-01-16T09:55:21;100543.13;;;0.79;93.18
64298;BME280;50639;53.270;7.956;2024-01-16T09:57:51;100547.22;;;0.85;92.83
64298;BME280;50639;53.270;7.956;2024-01-16T10:00:17;100562.53;;;0.83;92.63
64298;BME280;50639;53.270;7.956;2024-01-16T10:02:43;100554.59;;;0.95;92.87
64298;BME280;50639;53.270;7.956;2024-01-16T10:05:13;100550.88;;;1.07;92.13
64298;BME280;50639;53.270;7.956;2024-01-16T10:07:40;100558.94;;;1.24;91.70
64298;BME280;50639;53.270;7.956;2024-01-16T10:10:06;100550.97;;;1.36;91.38
64298;BME280;50639;53.270;7.956;2024-01-16T10:12:32;100546.69;;;1.37;91.12
64298;BME280;50639;53.270;7.956;2024-01-16T10:14:58;100541.19;;;1.50;90.48
64298;BME280;50639;53.270;7.956;2024-01-16T10:17:41;100542.75;;;1.56;90.58
64298;BME280;50639;53.270;7.956;2024-01-16T10:20:08;100548.66;;;1.58;89.67
64298;BME280;50639;53.270;7.956;2024-01-16T10:22:41;100541.53;;;1.69;89.73
64298;BME280;50639;53.270;7.956;2024-01-16T10:25:10;100541.25;;;1.78;89.67
64298;BME280;50639;53.270;7.956;2024-01-16T10:27:42;100530.97;;;1.81;89.68
64298;BME280;50639;53.270;7.956;2024-01-16T10:30:08;100537.66;;;1.85;89.00
64298;BME280;50639;53.270;7.956;2024-01-16T10:32:41;100537.31;;;1.98;89.10
64298;BME280;50639;53.270;7.956;2024-01-16T10:35:08;100532.00;;;2.04;88.05
64298;BME280;50639;53.270;7.956;2024-01-16T10:37:42;100536.34;;;2.02;87.29
64298;BME280;50639;53.270;7.956;2024-01-16T10:40:08;100545.00;;;1.96;87.49
64298;BME280;50639;53.270;7.956;2024-01-16T10:42:34;100545.16;;;1.92;87.45
64298;BME280;50639;53.270;7.956;2024-01-16T10:44:59;100544.47;;;1.85;88.22
64298;BME280;50639;53.270;7.956;2024-01-16T10:47:25;100558.69;;;1.94;87.80
64298;BME280;50639;53.270;7.956;2024-01-16T10:49:50;100539.44;;;1.83;87.35
64298;BME280;50639;53.270;7.956;2024-01-16T10:52:17;100546.56;;;1.72;87.60
64298;BME280;50639;53.270;7.956;2024-01-16T10:54:43;100547.47;;;1.70;88.24
64298;BME280;50639;53.270;7.956;2024-01-16T10:57:14;100541.31;;;1.77;87.94
64298;BME280;50639;53.270;7.956;2024-01-16T10:59:50;100545.47;;;1.81;87.96
64298;BME280;50639;53.270;7.956;2024-01-16T11:02:24;100540.91;;;1.91;87.58
64298;BME280;50639;53.270;7.956;2024-01-16T11:04:54;100545.03;;;1.95;87.49
64298;BME280;50639;53.270;7.956;2024-01-16T11:07:20;100539.50;;;1.80;87.66
64298;BME280;50639;53.270;7.956;2024-01-16T11:09:48;100538.06;;;1.72;87.67
64298;BME280;50639;53.270;7.956;2024-01-16T11:12:14;100546.00;;;1.61;87.54
64298;BME280;50639;53.270;7.956;2024-01-16T11:14:45;100544.50;;;1.54;88.33
64298;BME280;50639;53.270;7.956;2024-01-16T11:17:11;100543.56;;;1.58;88.71
64298;BME280;50639;53.270;7.956;2024-01-16T11:19:44;100545.13;;;1.62;88.85
64298;BME280;50639;53.270;7.956;2024-01-16T11:22:09;100536.31;;;1.74;88.52
64298;BME280;50639;53.270;7.956;2024-01-16T11:24:35;100534.91;;;1.93;87.79
64298;BME280;50639;53.270;7.956;2024-01-16T11:27:00;100531.34;;;1.97;87.62
64298;BME280;50639;53.270;7.956;2024-01-16T11:31:51;100540.97;;;2.17;86.94
64298;BME280;50639;53.270;7.956;2024-01-16T11:37:13;100537.44;;;2.21;86.90
64298;BME280;50639;53.270;7.956;2024-01-16T11:39:38;100544.25;;;2.20;86.41
64298;BME280;50639;53.270;7.956;2024-01-16T11:42:05;100542.75;;;2.15;86.47
64298;BME280;50639;53.270;7.956;2024-01-16T11:44:41;100535.94;;;2.14;86.89
64298;BME280;50639;53.270;7.956;2024-01-16T11:47:08;100536.72;;;2.17;87.11
64298;BME280;50639;53.270;7.956;2024-01-16T11:49:35;100534.03;;;2.20;86.86
64298;BME280;50639;53.270;7.956;2024-01-16T11:52:01;100525.16;;;2.04;86.64
64298;BME280;50639;53.270;7.956;2024-01-16T11:54:27;100517.72;;;1.98;86.58
64298;BME280;50639;53.270;7.956;2024-01-16T12:02:18;100519.09;;;1.80;87.30
64298;BME280;50639;53.270;7.956;2024-01-16T12:04:55;100520.56;;;1.87;87.47
64298;BME280;50639;53.270;7.956;2024-01-16T12:07:22;100528.28;;;1.86;87.49
64298;BME280;50639;53.270;7.956;2024-01-16T12:09:48;100520.38;;;1.94;87.41
64298;BME280;50639;53.270;7.956;2024-01-16T12:12:15;100519.38;;;1.99;87.47
64298;BME280;50639;53.270;7.956;2024-01-16T12:14:40;100521.63;;;2.10;87.77
64298;BME280;50639;53.270;7.956;2024-01-16T12:17:12;100515.31;;;2.20;87.00
64298;BME280;50639;53.270;7.956;2024-01-16T12:19:37;100509.63;;;2.38;87.36
64298;BME280;50639;53.270;7.956;2024-01-16T12:22:08;100512.84;;;2.45;86.99
64298;BME280;50639;53.270;7.956;2024-01-16T12:24:33;100508.56;;;2.45;86.44
64298;BME280;50639;53.270;7.956;2024-01-16T12:26:59;100511.91;;;2.47;86.45
64298;BME280;50639;53.270;7.956;2024-01-16T12:29:24;100506.78;;;2.47;87.02
64298;BME280;50639;53.270;7.956;2024-01-16T12:31:50;100501.00;;;2.42;85.99
64298;BME280;50639;53.270;7.956;2024-01-16T12:34:15;100505.44;;;2.37;86.57
64298;BME280;50639;53.270;7.956;2024-01-16T12:36:40;100495.97;;;2.39;86.53
64298;BME280;50639;53.270;7.956;2024-01-16T12:39:06;100501.09;;;2.39;87.09
64298;BME280;50639;53.270;7.956;2024-01-16T12:41:41;100491.13;;;2.32;87.17
64298;BME280;50639;53.270;7.956;2024-01-16T12:44:09;100492.25;;;2.23;87.23
64298;BME280;50639;53.270;7.956;2024-01-16T12:46:34;100488.88;;;2.21;87.33
64298;BME280;50639;53.270;7.956;2024-01-16T12:49:03;100487.09;;;2.24;87.52
64298;BME280;50639;53.270;7.956;2024-01-16T12:51:29;100488.00;;;2.22;87.85
64298;BME280;50639;53.270;7.956;2024-01-16T12:54:12;100480.34;;;2.22;88.04
64298;BME280;50639;53.270;7.956;2024-01-16T12:56:38;100480.25;;;2.25;88.67
64298;BME280;50639;53.270;7.956;2024-01-16T12:59:13;100480.16;;;2.28;88.40